Terminal Aerodrome Forecast
Issued by NWS

Home | Current Version | Previous Version | Text Only | Print | Product List | Glossary On
Versions: 1 2 3 4 5 6 7 8 9 10 11 12 13 14 15 16 17 18 19 20 21 22 23
000
FTUS43 KDLH 031513 AAB
TAFHIB
TAF AMD
KHIB 031513Z 0315/0412 30008KT P6SM SCT080
     FM031800 32012KT P6SM VCSH BKN060
      TEMPO 0318/0321 6SM -TSRA BKN035CB
     FM032100 32007KT P6SM SCT070=

USA.gov is the U.S. government's official web portal to all federal, state and local government web resources and services.